FDX1256 KBFM-KMSY
Flight info
| Callsign | FDX1256 |
|---|---|
| Flight time | N/A |
| Altitude | 3000 |
| Route | HITGA OLEZO HELMT |
| Aircraft | C208/L-SDFGR/C |
Departure
| Time | 2026-04-19 00:41 |
|---|---|
| Airport | Mobile Downtown Airport (KBFM) |
Arrival
| Time | N/A |
|---|---|
| Airport | Louis Armstrong New Orleans International Airport (KMSY) |
| Time | Latitude | Longitude | Altitude | Speed | Heading |
|---|---|---|---|---|---|
| 2026-04-19 00:41 | 30.41809 | -88.03974 | 3020 ft | 151 kts | 207° |
| 2026-04-19 00:41 | 30.40858 | -88.04486 | 3020 ft | 151 kts | 207° |
| 2026-04-19 00:41 | 30.39896 | -88.05001 | 3019 ft | 151 kts | 207° |
| 2026-04-19 00:42 | 30.38945 | -88.05512 | 3020 ft | 151 kts | 208° |
| 2026-04-19 00:42 | 30.37985 | -88.06027 | 3019 ft | 151 kts | 207° |
| 2026-04-19 00:42 | 30.37027 | -88.06543 | 3020 ft | 151 kts | 207° |
| 2026-04-19 00:42 | 30.36083 | -88.07049 | 3021 ft | 151 kts | 208° |
| 2026-04-19 00:43 | 30.35121 | -88.07564 | 3021 ft | 151 kts | 207° |
| 2026-04-19 00:43 | 30.34159 | -88.08081 | 3019 ft | 151 kts | 207° |
| 2026-04-19 00:43 | 30.33210 | -88.08590 | 3019 ft | 151 kts | 207° |
| 2026-04-19 00:43 | 30.32251 | -88.09103 | 3019 ft | 151 kts | 207° |
| 2026-04-19 00:44 | 30.31293 | -88.09622 | 3019 ft | 150 kts | 210° |
| 2026-04-19 00:44 | 30.30642 | -88.10483 | 3026 ft | 144 kts | 248° |
| 2026-04-19 00:44 | 30.30276 | -88.11573 | 3021 ft | 144 kts | 253° |
| 2026-04-19 00:44 | 30.29978 | -88.12684 | 3019 ft | 144 kts | 254° |
| 2026-04-19 00:45 | 30.29696 | -88.13784 | 3020 ft | 144 kts | 255° |
| 2026-04-19 00:45 | 30.29413 | -88.14895 | 3020 ft | 144 kts | 255° |
| 2026-04-19 00:45 | 30.29127 | -88.16014 | 3020 ft | 144 kts | 255° |
| 2026-04-19 00:45 | 30.28844 | -88.17129 | 3019 ft | 144 kts | 255° |
| 2026-04-19 00:46 | 30.28564 | -88.18229 | 3019 ft | 144 kts | 255° |
| 2026-04-19 00:46 | 30.28282 | -88.19345 | 3019 ft | 144 kts | 255° |
| 2026-04-19 00:46 | 30.27997 | -88.20458 | 3019 ft | 144 kts | 255° |
| 2026-04-19 00:46 | 30.27715 | -88.21572 | 3018 ft | 144 kts | 255° |
| 2026-04-19 00:47 | 30.27433 | -88.22683 | 3019 ft | 144 kts | 255° |
| 2026-04-19 00:47 | 30.27151 | -88.23785 | 3019 ft | 144 kts | 255° |
| 2026-04-19 00:47 | 30.26867 | -88.24901 | 3018 ft | 144 kts | 255° |
| 2026-04-19 00:47 | 30.26584 | -88.26013 | 3019 ft | 144 kts | 255° |
| 2026-04-19 00:48 | 30.26303 | -88.27116 | 3019 ft | 144 kts | 255° |
| 2026-04-19 00:48 | 30.26020 | -88.28226 | 3019 ft | 144 kts | 255° |
| 2026-04-19 00:48 | 30.25736 | -88.29343 | 3019 ft | 144 kts | 255° |
| 2026-04-19 00:48 | 30.25450 | -88.30457 | 3018 ft | 144 kts | 255° |
| 2026-04-19 00:49 | 30.25170 | -88.31558 | 3019 ft | 144 kts | 255° |
| 2026-04-19 00:49 | 30.24884 | -88.32679 | 3020 ft | 144 kts | 255° |
| 2026-04-19 00:49 | 30.24602 | -88.33780 | 3018 ft | 144 kts | 255° |
| 2026-04-19 00:49 | 30.24317 | -88.34896 | 3018 ft | 144 kts | 255° |
| 2026-04-19 00:50 | 30.24033 | -88.36008 | 3019 ft | 144 kts | 255° |
| 2026-04-19 00:50 | 30.23746 | -88.37127 | 3019 ft | 144 kts | 255° |
| 2026-04-19 00:50 | 30.23465 | -88.38228 | 3018 ft | 144 kts | 255° |
| 2026-04-19 00:50 | 30.23181 | -88.39338 | 3019 ft | 144 kts | 255° |
| 2026-04-19 00:51 | 30.22896 | -88.40453 | 3016 ft | 144 kts | 255° |
| 2026-04-19 00:51 | 30.22611 | -88.41560 | 3019 ft | 144 kts | 255° |
| 2026-04-19 00:51 | 30.22327 | -88.42673 | 3019 ft | 144 kts | 255° |
| 2026-04-19 00:51 | 30.22044 | -88.43776 | 3018 ft | 144 kts | 255° |
| 2026-04-19 00:52 | 30.21760 | -88.44888 | 3018 ft | 144 kts | 255° |
| 2026-04-19 00:52 | 30.21478 | -88.45990 | 3018 ft | 144 kts | 255° |
| 2026-04-19 00:52 | 30.21191 | -88.47102 | 3018 ft | 144 kts | 255° |
| 2026-04-19 00:52 | 30.20905 | -88.48219 | 3018 ft | 144 kts | 255° |
| 2026-04-19 00:53 | 30.20622 | -88.49322 | 3019 ft | 144 kts | 255° |
| 2026-04-19 00:53 | 30.20336 | -88.50436 | 3019 ft | 144 kts | 255° |
| 2026-04-19 00:53 | 30.20050 | -88.51549 | 3018 ft | 144 kts | 255° |
| 2026-04-19 00:53 | 30.19762 | -88.52663 | 3019 ft | 144 kts | 255° |
| 2026-04-19 00:54 | 30.19479 | -88.53767 | 3018 ft | 144 kts | 255° |
| 2026-04-19 00:54 | 30.19195 | -88.54874 | 3019 ft | 144 kts | 255° |
| 2026-04-19 00:54 | 30.18907 | -88.55987 | 3018 ft | 144 kts | 255° |
| 2026-04-19 00:54 | 30.18623 | -88.57092 | 3018 ft | 144 kts | 255° |
| 2026-04-19 00:55 | 30.18336 | -88.58205 | 3018 ft | 144 kts | 255° |
| 2026-04-19 00:55 | 30.18049 | -88.59320 | 3018 ft | 144 kts | 255° |
| 2026-04-19 00:55 | 30.17765 | -88.60423 | 3019 ft | 144 kts | 255° |
| 2026-04-19 00:55 | 30.17477 | -88.61536 | 3018 ft | 143 kts | 255° |
| 2026-04-19 00:56 | 30.17190 | -88.62649 | 3018 ft | 144 kts | 255° |
| 2026-04-19 00:56 | 30.16907 | -88.63749 | 3018 ft | 144 kts | 255° |
| 2026-04-19 00:56 | 30.16617 | -88.64864 | 3018 ft | 144 kts | 255° |
| 2026-04-19 00:56 | 30.16331 | -88.65977 | 3019 ft | 144 kts | 254° |
| 2026-04-19 00:57 | 30.16047 | -88.67075 | 3021 ft | 144 kts | 254° |
| 2026-04-19 00:57 | 30.15759 | -88.68192 | 3020 ft | 144 kts | 254° |
| 2026-04-19 00:57 | 30.15472 | -88.69299 | 3020 ft | 144 kts | 254° |
| 2026-04-19 00:57 | 30.15183 | -88.70416 | 3021 ft | 144 kts | 254° |
| 2026-04-19 00:58 | 30.14898 | -88.71516 | 3019 ft | 144 kts | 254° |
| 2026-04-19 00:58 | 30.14609 | -88.72633 | 3021 ft | 144 kts | 254° |
| 2026-04-19 00:58 | 30.14322 | -88.73741 | 3020 ft | 144 kts | 254° |
| 2026-04-19 00:58 | 30.14035 | -88.74847 | 3021 ft | 144 kts | 254° |
| 2026-04-19 00:59 | 30.13750 | -88.75961 | 3020 ft | 145 kts | 254° |
| 2026-04-19 00:59 | 30.13456 | -88.77081 | 3019 ft | 145 kts | 254° |
| 2026-04-19 00:59 | 30.13164 | -88.78204 | 3019 ft | 144 kts | 254° |
| 2026-04-19 00:59 | 30.12872 | -88.79327 | 3019 ft | 144 kts | 254° |
| 2026-04-19 01:00 | 30.12587 | -88.80427 | 3020 ft | 144 kts | 254° |
| 2026-04-19 01:00 | 30.12296 | -88.81551 | 3019 ft | 144 kts | 254° |
| 2026-04-19 01:00 | 30.12004 | -88.82672 | 3020 ft | 144 kts | 254° |
| 2026-04-19 01:00 | 30.11717 | -88.83777 | 3020 ft | 144 kts | 254° |
| 2026-04-19 01:01 | 30.11426 | -88.84898 | 3020 ft | 144 kts | 254° |
| 2026-04-19 01:01 | 30.11136 | -88.86013 | 3019 ft | 144 kts | 254° |
| 2026-04-19 01:01 | 30.10848 | -88.87118 | 3020 ft | 144 kts | 254° |
| 2026-04-19 01:01 | 30.10556 | -88.88237 | 3019 ft | 144 kts | 254° |
| 2026-04-19 01:02 | 30.10266 | -88.89350 | 3019 ft | 144 kts | 254° |
| 2026-04-19 01:02 | 30.09977 | -88.90464 | 3019 ft | 144 kts | 254° |
| 2026-04-19 01:02 | 30.09687 | -88.91575 | 3019 ft | 144 kts | 254° |
| 2026-04-19 01:02 | 30.09401 | -88.92673 | 3019 ft | 144 kts | 254° |
| 2026-04-19 01:03 | 30.09110 | -88.93788 | 3020 ft | 144 kts | 254° |
| 2026-04-19 01:03 | 30.08820 | -88.94899 | 3019 ft | 144 kts | 254° |
| 2026-04-19 01:03 | 30.08530 | -88.96011 | 3018 ft | 144 kts | 254° |
| 2026-04-19 01:03 | 30.08240 | -88.97121 | 3019 ft | 144 kts | 254° |
| 2026-04-19 01:04 | 30.07953 | -88.98222 | 3019 ft | 144 kts | 254° |
| 2026-04-19 01:04 | 30.07661 | -88.99340 | 3020 ft | 144 kts | 254° |
| 2026-04-19 01:04 | 30.07373 | -89.00440 | 3019 ft | 144 kts | 254° |
| 2026-04-19 01:04 | 30.07081 | -89.01554 | 3020 ft | 144 kts | 254° |
| 2026-04-19 01:05 | 30.06791 | -89.02664 | 3018 ft | 144 kts | 254° |
| 2026-04-19 01:05 | 30.06503 | -89.03767 | 3019 ft | 144 kts | 254° |
| 2026-04-19 01:05 | 30.06212 | -89.04879 | 3019 ft | 144 kts | 254° |
| 2026-04-19 01:05 | 30.05919 | -89.05991 | 3019 ft | 144 kts | 254° |
| 2026-04-19 01:06 | 30.05632 | -89.07091 | 3020 ft | 144 kts | 254° |
| 2026-04-19 01:06 | 30.05340 | -89.08203 | 3020 ft | 144 kts | 254° |
| 2026-04-19 01:06 | 30.05050 | -89.09310 | 3019 ft | 144 kts | 254° |
| 2026-04-19 01:06 | 30.04762 | -89.10407 | 3020 ft | 144 kts | 254° |
| 2026-04-19 01:07 | 30.04470 | -89.11518 | 3019 ft | 144 kts | 254° |
| 2026-04-19 01:07 | 30.04183 | -89.12614 | 3019 ft | 144 kts | 254° |
| 2026-04-19 01:07 | 30.03891 | -89.13728 | 3019 ft | 144 kts | 254° |
| 2026-04-19 01:07 | 30.03601 | -89.14827 | 3018 ft | 144 kts | 254° |
| 2026-04-19 01:08 | 30.03309 | -89.15941 | 3020 ft | 144 kts | 254° |
| 2026-04-19 01:08 | 30.03017 | -89.17054 | 3019 ft | 144 kts | 254° |
| 2026-04-19 01:08 | 30.02727 | -89.18153 | 3018 ft | 144 kts | 254° |
| 2026-04-19 01:08 | 30.02434 | -89.19265 | 3019 ft | 144 kts | 254° |
| 2026-04-19 01:09 | 30.02146 | -89.20361 | 3018 ft | 144 kts | 254° |
| 2026-04-19 01:09 | 30.01852 | -89.21478 | 3019 ft | 144 kts | 254° |
| 2026-04-19 01:09 | 30.01564 | -89.22574 | 3018 ft | 144 kts | 254° |
| 2026-04-19 01:09 | 30.01270 | -89.23688 | 3019 ft | 144 kts | 254° |
| 2026-04-19 01:10 | 30.00976 | -89.24800 | 3019 ft | 144 kts | 254° |
| 2026-04-19 01:10 | 30.00688 | -89.25894 | 3019 ft | 144 kts | 254° |
| 2026-04-19 01:10 | 30.00393 | -89.27009 | 3018 ft | 144 kts | 254° |
| 2026-04-19 01:10 | 30.00101 | -89.28117 | 3018 ft | 144 kts | 254° |
| 2026-04-19 01:11 | 29.99812 | -89.29215 | 3020 ft | 144 kts | 254° |
| 2026-04-19 01:11 | 29.99518 | -89.30327 | 3019 ft | 144 kts | 254° |
| 2026-04-19 01:11 | 29.99227 | -89.31428 | 3019 ft | 144 kts | 254° |
| 2026-04-19 01:11 | 29.98933 | -89.32539 | 3019 ft | 144 kts | 254° |
| 2026-04-19 01:12 | 29.98640 | -89.33649 | 3019 ft | 144 kts | 254° |
| 2026-04-19 01:12 | 29.98350 | -89.34746 | 3019 ft | 144 kts | 254° |
| 2026-04-19 01:12 | 29.98057 | -89.35853 | 3019 ft | 144 kts | 254° |
| 2026-04-19 01:12 | 29.97767 | -89.36949 | 3019 ft | 144 kts | 254° |
| 2026-04-19 01:13 | 29.97473 | -89.38058 | 3014 ft | 144 kts | 254° |
| 2026-04-19 01:13 | 29.97180 | -89.39167 | 3021 ft | 144 kts | 255° |
| 2026-04-19 01:13 | 29.96886 | -89.40263 | 3030 ft | 144 kts | 254° |
| 2026-04-19 01:13 | 29.96594 | -89.41377 | 3021 ft | 144 kts | 253° |
| 2026-04-19 01:14 | 29.96302 | -89.42479 | 3019 ft | 144 kts | 254° |
| 2026-04-19 01:14 | 29.96005 | -89.43592 | 3018 ft | 144 kts | 254° |
| 2026-04-19 01:14 | 29.95709 | -89.44707 | 3018 ft | 144 kts | 254° |
| 2026-04-19 01:14 | 29.95417 | -89.45809 | 3018 ft | 144 kts | 254° |
| 2026-04-19 01:15 | 29.95122 | -89.46920 | 3019 ft | 144 kts | 254° |
| 2026-04-19 01:15 | 29.94832 | -89.48016 | 3016 ft | 144 kts | 255° |
| 2026-04-19 01:15 | 29.94534 | -89.49129 | 3019 ft | 143 kts | 254° |
| 2026-04-19 01:15 | 29.94244 | -89.50227 | 3015 ft | 144 kts | 253° |
| 2026-04-19 01:16 | 29.93949 | -89.51322 | 3021 ft | 143 kts | 255° |
| 2026-04-19 01:16 | 29.93656 | -89.52432 | 3017 ft | 143 kts | 253° |
| 2026-04-19 01:16 | 29.93369 | -89.53524 | 3016 ft | 143 kts | 254° |
| 2026-04-19 01:16 | 29.93072 | -89.54627 | 3018 ft | 144 kts | 254° |
| 2026-04-19 01:17 | 29.92765 | -89.55782 | 3019 ft | 144 kts | 254° |
| 2026-04-19 01:17 | 29.92464 | -89.56913 | 3018 ft | 144 kts | 254° |